KJVL/JVL METAR and TAF weather

Enter ICAO airport designator
Station Type Date Time Source
KJVL METAR 2021/09/28 15:45 UTC NOAA

KJVL 281545Z 11009KT 10SM CLR 21/09 A3003


Station Type Date Time Source
KJVL Decoded METAR 2021/09/28 15:45 UTC NOAA

Janesville / Rock County, WI, United States (KJVL) 42-37N 089-02W
Sep 28, 2021 - 11:45 AM EDT / 2021.09.28 1545 UTC
Wind: from the ESE (110 degrees) at 10 MPH (9 KT):0
Visibility: 10 mile(s):0
Sky conditions: clear
Temperature: 69 F (21 C)
Dew Point: 48 F (9 C)
Relative Humidity: 46%
Pressure (altimeter): 30.03 in. Hg (1016 hPa)
ob: KJVL 281545Z 11009KT 10SM CLR 21/09 A3003
cycle: 16

Station Type Date Time Source
KJVL TAF 2021/09/28 15:06 UTC NOAA

TAF
AMD KJVL 281503Z 2815/2912 09008KT P6SM SKC
FM290500 11004KT P6SM SKC

Example: see airport list